sensor_id;sensor_type;location;lat;lon;timestamp;P1;durP1;ratioP1;P2;durP2;ratioP2
25667;SDS011;18003;-33.830;151.202;2024-02-21T00:02:08;7.05;;;3.08;;
25667;SDS011;18003;-33.830;151.202;2024-02-21T00:04:37;9.35;;;3.15;;
25667;SDS011;18003;-33.830;151.202;2024-02-21T00:07:07;6.72;;;2.67;;
25667;SDS011;18003;-33.830;151.202;2024-02-21T00:09:37;6.45;;;2.50;;
25667;SDS011;18003;-33.830;151.202;2024-02-21T00:12:08;4.92;;;2.55;;
25667;SDS011;18003;-33.830;151.202;2024-02-21T00:14:39;3.58;;;2.62;;
25667;SDS011;18003;-33.830;151.202;2024-02-21T00:17:09;4.83;;;2.55;;
25667;SDS011;18003;-33.830;151.202;2024-02-21T00:19:38;4.03;;;2.55;;
25667;SDS011;18003;-33.830;151.202;2024-02-21T00:22:08;6.47;;;2.90;;
25667;SDS011;18003;-33.830;151.202;2024-02-21T00:24:38;3.00;;;2.70;;
25667;SDS011;18003;-33.830;151.202;2024-02-21T00:27:08;6.10;;;2.90;;
25667;SDS011;18003;-33.830;151.202;2024-02-21T00:29:39;3.47;;;2.50;;
25667;SDS011;18003;-33.830;151.202;2024-02-21T00:32:09;5.45;;;2.50;;
25667;SDS011;18003;-33.830;151.202;2024-02-21T00:34:38;6.62;;;3.15;;
25667;SDS011;18003;-33.830;151.202;2024-02-21T00:39:56;4.03;;;2.70;;
25667;SDS011;18003;-33.830;151.202;2024-02-21T00:42:26;4.78;;;2.77;;
25667;SDS011;18003;-33.830;151.202;2024-02-21T00:44:56;5.30;;;2.52;;
25667;SDS011;18003;-33.830;151.202;2024-02-21T00:47:31;5.53;;;2.65;;
25667;SDS011;18003;-33.830;151.202;2024-02-21T00:53:22;4.25;;;2.40;;
25667;SDS011;18003;-33.830;151.202;2024-02-21T00:55:52;5.47;;;2.77;;
25667;SDS011;18003;-33.830;151.202;2024-02-21T00:58:23;6.92;;;2.90;;
25667;SDS011;18003;-33.830;151.202;2024-02-21T01:00:53;5.62;;;2.92;;
25667;SDS011;18003;-33.830;151.202;2024-02-21T01:03:22;6.37;;;2.80;;
25667;SDS011;18003;-33.830;151.202;2024-02-21T01:05:52;4.58;;;2.60;;
25667;SDS011;18003;-33.830;151.202;2024-02-21T01:08:22;5.15;;;2.90;;
25667;SDS011;18003;-33.830;151.202;2024-02-21T01:10:52;11.68;;;3.85;;
25667;SDS011;18003;-33.830;151.202;2024-02-21T01:13:21;6.85;;;2.90;;
25667;SDS011;18003;-33.830;151.202;2024-02-21T01:15:51;8.70;;;2.83;;
25667;SDS011;18003;-33.830;151.202;2024-02-21T01:18:21;5.58;;;2.40;;
25667;SDS011;18003;-33.830;151.202;2024-02-21T01:20:51;3.60;;;2.72;;
25667;SDS011;18003;-33.830;151.202;2024-02-21T01:23:20;8.00;;;2.72;;
25667;SDS011;18003;-33.830;151.202;2024-02-21T01:25:50;9.85;;;2.70;;
25667;SDS011;18003;-33.830;151.202;2024-02-21T01:28:21;6.85;;;2.80;;
25667;SDS011;18003;-33.830;151.202;2024-02-21T01:30:51;6.10;;;3.27;;
25667;SDS011;18003;-33.830;151.202;2024-02-21T01:33:21;6.17;;;2.90;;
25667;SDS011;18003;-33.830;151.202;2024-02-21T01:35:50;6.22;;;2.75;;
25667;SDS011;18003;-33.830;151.202;2024-02-21T01:38:20;5.03;;;2.65;;
25667;SDS011;18003;-33.830;151.202;2024-02-21T01:40:50;5.12;;;2.58;;
25667;SDS011;18003;-33.830;151.202;2024-02-21T01:43:20;4.58;;;2.58;;
25667;SDS011;18003;-33.830;151.202;2024-02-21T01:45:50;4.00;;;2.75;;
25667;SDS011;18003;-33.830;151.202;2024-02-21T01:48:25;5.47;;;2.70;;
25667;SDS011;18003;-33.830;151.202;2024-02-21T01:50:55;5.40;;;2.80;;
25667;SDS011;18003;-33.830;151.202;2024-02-21T01:53:27;5.60;;;2.90;;
25667;SDS011;18003;-33.830;151.202;2024-02-21T01:55:57;5.87;;;2.80;;
25667;SDS011;18003;-33.830;151.202;2024-02-21T01:58:28;5.30;;;2.72;;
25667;SDS011;18003;-33.830;151.202;2024-02-21T02:00:58;7.37;;;2.80;;
25667;SDS011;18003;-33.830;151.202;2024-02-21T02:03:29;3.60;;;2.57;;
25667;SDS011;18003;-33.830;151.202;2024-02-21T02:05:59;4.05;;;2.52;;
25667;SDS011;18003;-33.830;151.202;2024-02-21T02:08:29;3.33;;;2.60;;
25667;SDS011;18003;-33.830;151.202;2024-02-21T02:10:59;4.00;;;2.55;;
25667;SDS011;18003;-33.830;151.202;2024-02-21T02:13:29;4.33;;;2.40;;
25667;SDS011;18003;-33.830;151.202;2024-02-21T02:15:59;4.20;;;2.35;;
25667;SDS011;18003;-33.830;151.202;2024-02-21T02:18:29;2.55;;;2.20;;
25667;SDS011;18003;-33.830;151.202;2024-02-21T02:20:59;6.22;;;2.50;;
25667;SDS011;18003;-33.830;151.202;2024-02-21T02:23:34;6.75;;;2.55;;
25667;SDS011;18003;-33.830;151.202;2024-02-21T02:26:00;4.62;;;1.90;;
25667;SDS011;18003;-33.830;151.202;2024-02-21T02:28:30;7.15;;;2.33;;
25667;SDS011;18003;-33.830;151.202;2024-02-21T02:30:59;5.78;;;2.20;;
25667;SDS011;18003;-33.830;151.202;2024-02-21T02:33:29;4.17;;;2.27;;
25667;SDS011;18003;-33.830;151.202;2024-02-21T02:35:59;4.92;;;2.58;;
25667;SDS011;18003;-33.830;151.202;2024-02-21T02:38:29;8.38;;;2.62;;
25667;SDS011;18003;-33.830;151.202;2024-02-21T02:40:58;5.22;;;2.40;;
25667;SDS011;18003;-33.830;151.202;2024-02-21T02:43:28;3.98;;;2.30;;
25667;SDS011;18003;-33.830;151.202;2024-02-21T02:45:58;6.35;;;2.85;;
25667;SDS011;18003;-33.830;151.202;2024-02-21T02:48:28;5.90;;;2.77;;
25667;SDS011;18003;-33.830;151.202;2024-02-21T02:50:58;4.67;;;2.50;;
25667;SDS011;18003;-33.830;151.202;2024-02-21T02:53:27;5.90;;;2.85;;
25667;SDS011;18003;-33.830;151.202;2024-02-21T02:56:02;4.12;;;2.50;;
25667;SDS011;18003;-33.830;151.202;2024-02-21T02:58:28;6.50;;;2.52;;
25667;SDS011;18003;-33.830;151.202;2024-02-21T03:00:58;4.75;;;2.42;;
25667;SDS011;18003;-33.830;151.202;2024-02-21T03:03:29;8.40;;;2.67;;
25667;SDS011;18003;-33.830;151.202;2024-02-21T03:05:58;5.15;;;2.20;;
25667;SDS011;18003;-33.830;151.202;2024-02-21T03:08:28;7.15;;;2.42;;
25667;SDS011;18003;-33.830;151.202;2024-02-21T03:10:59;5.30;;;2.40;;
25667;SDS011;18003;-33.830;151.202;2024-02-21T03:13:29;5.70;;;2.65;;
25667;SDS011;18003;-33.830;151.202;2024-02-21T03:16:02;4.92;;;2.50;;
25667;SDS011;18003;-33.830;151.202;2024-02-21T03:18:33;4.95;;;2.20;;
25667;SDS011;18003;-33.830;151.202;2024-02-21T03:21:05;3.45;;;2.30;;
25667;SDS011;18003;-33.830;151.202;2024-02-21T03:23:35;5.53;;;2.50;;
25667;SDS011;18003;-33.830;151.202;2024-02-21T03:26:19;2.52;;;2.33;;
25667;SDS011;18003;-33.830;151.202;2024-02-21T03:28:45;4.67;;;2.92;;
25667;SDS011;18003;-33.830;151.202;2024-02-21T03:31:15;3.80;;;2.37;;
25667;SDS011;18003;-33.830;151.202;2024-02-21T03:33:45;3.55;;;2.50;;
25667;SDS011;18003;-33.830;151.202;2024-02-21T03:36:15;5.45;;;2.62;;
25667;SDS011;18003;-33.830;151.202;2024-02-21T03:38:44;4.33;;;2.50;;
25667;SDS011;18003;-33.830;151.202;2024-02-21T03:41:14;4.10;;;2.70;;
25667;SDS011;18003;-33.830;151.202;2024-02-21T03:43:44;3.60;;;2.40;;
25667;SDS011;18003;-33.830;151.202;2024-02-21T03:46:14;3.17;;;2.02;;
25667;SDS011;18003;-33.830;151.202;2024-02-21T03:48:44;4.60;;;2.20;;
25667;SDS011;18003;-33.830;151.202;2024-02-21T03:51:13;8.45;;;2.30;;
25667;SDS011;18003;-33.830;151.202;2024-02-21T03:53:43;6.25;;;2.52;;
25667;SDS011;18003;-33.830;151.202;2024-02-21T03:56:13;4.37;;;2.30;;
25667;SDS011;18003;-33.830;151.202;2024-02-21T03:58:43;3.92;;;2.50;;
25667;SDS011;18003;-33.830;151.202;2024-02-21T04:01:14;3.08;;;2.30;;
25667;SDS011;18003;-33.830;151.202;2024-02-21T04:03:44;5.15;;;2.67;;
25667;SDS011;18003;-33.830;151.202;2024-02-21T04:06:13;5.53;;;2.40;;
25667;SDS011;18003;-33.830;151.202;2024-02-21T04:08:43;4.17;;;2.60;;
25667;SDS011;18003;-33.830;151.202;2024-02-21T04:11:14;4.95;;;2.15;;
25667;SDS011;18003;-33.830;151.202;2024-02-21T04:13:45;3.52;;;2.58;;
25667;SDS011;18003;-33.830;151.202;2024-02-21T04:16:23;4.62;;;2.80;;
25667;SDS011;18003;-33.830;151.202;2024-02-21T04:18:48;3.35;;;2.12;;
25667;SDS011;18003;-33.830;151.202;2024-02-21T04:21:19;3.87;;;2.50;;
25667;SDS011;18003;-33.830;151.202;2024-02-21T04:23:49;5.28;;;2.20;;
25667;SDS011;18003;-33.830;151.202;2024-02-21T04:26:53;2.90;;;2.40;;
25667;SDS011;18003;-33.830;151.202;2024-02-21T04:29:23;2.45;;;2.12;;
25667;SDS011;18003;-33.830;151.202;2024-02-21T04:31:53;3.98;;;2.30;;
25667;SDS011;18003;-33.830;151.202;2024-02-21T04:34:23;2.33;;;2.00;;
25667;SDS011;18003;-33.830;151.202;2024-02-21T04:36:54;3.22;;;2.17;;
25667;SDS011;18003;-33.830;151.202;2024-02-21T04:39:24;3.72;;;2.50;;
25667;SDS011;18003;-33.830;151.202;2024-02-21T04:41:54;2.20;;;2.10;;
25667;SDS011;18003;-33.830;151.202;2024-02-21T04:44:23;3.22;;;2.00;;
25667;SDS011;18003;-33.830;151.202;2024-02-21T04:46:53;4.00;;;2.60;;
25667;SDS011;18003;-33.830;151.202;2024-02-21T04:49:23;2.85;;;2.60;;
25667;SDS011;18003;-33.830;151.202;2024-02-21T04:51:53;2.20;;;2.10;;
25667;SDS011;18003;-33.830;151.202;2024-02-21T04:54:23;3.10;;;2.50;;
25667;SDS011;18003;-33.830;151.202;2024-02-21T04:56:52;3.70;;;2.55;;
25667;SDS011;18003;-33.830;151.202;2024-02-21T04:59:22;4.10;;;2.42;;
25667;SDS011;18003;-33.830;151.202;2024-02-21T05:04:40;1.87;;;1.60;;
25667;SDS011;18003;-33.830;151.202;2024-02-21T05:07:13;2.15;;;1.70;;
25667;SDS011;18003;-33.830;151.202;2024-02-21T05:09:43;2.90;;;2.05;;
25667;SDS011;18003;-33.830;151.202;2024-02-21T05:12:12;2.87;;;2.10;;
25667;SDS011;18003;-33.830;151.202;2024-02-21T05:14:42;4.22;;;2.10;;
25667;SDS011;18003;-33.830;151.202;2024-02-21T05:17:12;2.27;;;2.00;;
25667;SDS011;18003;-33.830;151.202;2024-02-21T05:19:43;3.30;;;1.80;;
25667;SDS011;18003;-33.830;151.202;2024-02-21T05:22:12;4.00;;;2.20;;
25667;SDS011;18003;-33.830;151.202;2024-02-21T05:24:42;2.40;;;2.08;;
25667;SDS011;18003;-33.830;151.202;2024-02-21T05:27:12;3.75;;;1.65;;
25667;SDS011;18003;-33.830;151.202;2024-02-21T05:29:42;7.20;;;1.80;;
25667;SDS011;18003;-33.830;151.202;2024-02-21T05:32:12;5.05;;;2.27;;
25667;SDS011;18003;-33.830;151.202;2024-02-21T05:34:42;3.55;;;1.92;;
25667;SDS011;18003;-33.830;151.202;2024-02-21T05:37:12;2.27;;;1.70;;
25667;SDS011;18003;-33.830;151.202;2024-02-21T05:39:42;2.10;;;1.60;;
25667;SDS011;18003;-33.830;151.202;2024-02-21T05:42:11;2.00;;;1.60;;
25667;SDS011;18003;-33.830;151.202;2024-02-21T05:44:41;2.87;;;1.80;;
25667;SDS011;18003;-33.830;151.202;2024-02-21T05:47:11;6.08;;;1.62;;
25667;SDS011;18003;-33.830;151.202;2024-02-21T05:49:41;2.67;;;1.72;;
25667;SDS011;18003;-33.830;151.202;2024-02-21T05:52:11;4.80;;;1.85;;
25667;SDS011;18003;-33.830;151.202;2024-02-21T05:54:41;4.00;;;2.10;;
25667;SDS011;18003;-33.830;151.202;2024-02-21T05:57:11;3.70;;;2.17;;
25667;SDS011;18003;-33.830;151.202;2024-02-21T05:59:41;4.22;;;2.15;;
25667;SDS011;18003;-33.830;151.202;2024-02-21T06:02:10;3.85;;;2.00;;
25667;SDS011;18003;-33.830;151.202;2024-02-21T06:04:40;3.17;;;2.08;;
25667;SDS011;18003;-33.830;151.202;2024-02-21T06:07:10;2.85;;;1.67;;
25667;SDS011;18003;-33.830;151.202;2024-02-21T06:09:40;4.47;;;2.10;;
25667;SDS011;18003;-33.830;151.202;2024-02-21T06:12:10;4.92;;;1.90;;
25667;SDS011;18003;-33.830;151.202;2024-02-21T06:14:40;2.22;;;1.92;;
25667;SDS011;18003;-33.830;151.202;2024-02-21T06:17:10;4.65;;;2.10;;
25667;SDS011;18003;-33.830;151.202;2024-02-21T06:22:45;4.28;;;2.42;;
25667;SDS011;18003;-33.830;151.202;2024-02-21T06:25:16;2.85;;;2.02;;
25667;SDS011;18003;-33.830;151.202;2024-02-21T06:27:46;4.95;;;2.10;;
25667;SDS011;18003;-33.830;151.202;2024-02-21T06:30:15;2.62;;;1.70;;
25667;SDS011;18003;-33.830;151.202;2024-02-21T06:32:45;3.65;;;1.95;;
25667;SDS011;18003;-33.830;151.202;2024-02-21T06:35:15;2.27;;;1.80;;
25667;SDS011;18003;-33.830;151.202;2024-02-21T06:37:45;3.58;;;1.52;;
25667;SDS011;18003;-33.830;151.202;2024-02-21T06:40:16;3.67;;;1.70;;
25667;SDS011;18003;-33.830;151.202;2024-02-21T06:42:46;2.52;;;1.42;;
25667;SDS011;18003;-33.830;151.202;2024-02-21T06:45:16;3.15;;;1.42;;
25667;SDS011;18003;-33.830;151.202;2024-02-21T06:47:46;1.40;;;1.30;;
25667;SDS011;18003;-33.830;151.202;2024-02-21T06:50:15;2.98;;;1.60;;
25667;SDS011;18003;-33.830;151.202;2024-02-21T06:52:45;3.65;;;1.42;;
25667;SDS011;18003;-33.830;151.202;2024-02-21T06:55:15;2.65;;;1.60;;
25667;SDS011;18003;-33.830;151.202;2024-02-21T06:57:45;2.55;;;1.55;;
25667;SDS011;18003;-33.830;151.202;2024-02-21T07:00:15;2.12;;;1.40;;
25667;SDS011;18003;-33.830;151.202;2024-02-21T07:02:45;2.43;;;1.50;;
25667;SDS011;18003;-33.830;151.202;2024-02-21T07:05:16;3.15;;;1.30;;
25667;SDS011;18003;-33.830;151.202;2024-02-21T07:07:46;2.30;;;1.12;;
25667;SDS011;18003;-33.830;151.202;2024-02-21T07:10:16;2.55;;;1.40;;
25667;SDS011;18003;-33.830;151.202;2024-02-21T07:12:45;1.82;;;1.10;;
25667;SDS011;18003;-33.830;151.202;2024-02-21T07:15:15;1.95;;;1.30;;
25667;SDS011;18003;-33.830;151.202;2024-02-21T07:17:45;2.20;;;1.45;;
25667;SDS011;18003;-33.830;151.202;2024-02-21T07:20:15;3.05;;;1.27;;
25667;SDS011;18003;-33.830;151.202;2024-02-21T07:22:44;2.80;;;1.10;;
25667;SDS011;18003;-33.830;151.202;2024-02-21T07:25:14;3.37;;;1.50;;
25667;SDS011;18003;-33.830;151.202;2024-02-21T07:27:44;4.25;;;1.40;;
25667;SDS011;18003;-33.830;151.202;2024-02-21T07:30:14;3.72;;;1.30;;
25667;SDS011;18003;-33.830;151.202;2024-02-21T07:32:43;2.00;;;1.22;;
25667;SDS011;18003;-33.830;151.202;2024-02-21T07:35:13;2.75;;;1.10;;
25667;SDS011;18003;-33.830;151.202;2024-02-21T07:37:48;8.50;;;1.42;;
25667;SDS011;18003;-33.830;151.202;2024-02-21T07:40:14;5.22;;;1.40;;
25667;SDS011;18003;-33.830;151.202;2024-02-21T07:42:44;2.90;;;1.42;;
25667;SDS011;18003;-33.830;151.202;2024-02-21T07:45:14;4.28;;;1.20;;
25667;SDS011;18003;-33.830;151.202;2024-02-21T07:47:44;3.55;;;1.30;;
25667;SDS011;18003;-33.830;151.202;2024-02-21T07:50:14;4.87;;;1.47;;
25667;SDS011;18003;-33.830;151.202;2024-02-21T07:52:44;6.05;;;1.72;;
25667;SDS011;18003;-33.830;151.202;2024-02-21T07:55:14;2.95;;;1.55;;
25667;SDS011;18003;-33.830;151.202;2024-02-21T07:57:44;2.83;;;1.25;;
25667;SDS011;18003;-33.830;151.202;2024-02-21T08:00:14;3.72;;;1.30;;
25667;SDS011;18003;-33.830;151.202;2024-02-21T08:02:49;3.27;;;1.37;;
25667;SDS011;18003;-33.830;151.202;2024-02-21T08:05:19;3.90;;;1.52;;
25667;SDS011;18003;-33.830;151.202;2024-02-21T08:07:49;2.83;;;1.60;;
25667;SDS011;18003;-33.830;151.202;2024-02-21T08:10:19;2.27;;;1.40;;
25667;SDS011;18003;-33.830;151.202;2024-02-21T08:12:49;2.85;;;1.60;;
25667;SDS011;18003;-33.830;151.202;2024-02-21T08:15:18;4.60;;;1.60;;
25667;SDS011;18003;-33.830;151.202;2024-02-21T08:17:49;3.45;;;1.98;;
25667;SDS011;18003;-33.830;151.202;2024-02-21T08:20:19;4.87;;;1.70;;
25667;SDS011;18003;-33.830;151.202;2024-02-21T08:22:49;4.25;;;2.00;;
25667;SDS011;18003;-33.830;151.202;2024-02-21T08:25:19;3.55;;;1.80;;
25667;SDS011;18003;-33.830;151.202;2024-02-21T08:27:49;3.50;;;1.70;;
25667;SDS011;18003;-33.830;151.202;2024-02-21T08:30:19;2.90;;;1.60;;
25667;SDS011;18003;-33.830;151.202;2024-02-21T08:32:48;4.97;;;2.00;;
25667;SDS011;18003;-33.830;151.202;2024-02-21T08:35:18;10.08;;;2.17;;
25667;SDS011;18003;-33.830;151.202;2024-02-21T08:37:51;3.47;;;1.72;;
25667;SDS011;18003;-33.830;151.202;2024-02-21T08:40:20;7.17;;;2.00;;
25667;SDS011;18003;-33.830;151.202;2024-02-21T08:42:50;3.85;;;2.00;;
25667;SDS011;18003;-33.830;151.202;2024-02-21T08:45:20;5.50;;;2.20;;
25667;SDS011;18003;-33.830;151.202;2024-02-21T08:47:50;4.72;;;2.05;;
25667;SDS011;18003;-33.830;151.202;2024-02-21T08:50:20;7.08;;;1.90;;
25667;SDS011;18003;-33.830;151.202;2024-02-21T08:52:49;5.33;;;1.98;;
25667;SDS011;18003;-33.830;151.202;2024-02-21T08:55:19;5.58;;;1.90;;
25667;SDS011;18003;-33.830;151.202;2024-02-21T08:57:50;4.72;;;1.82;;
25667;SDS011;18003;-33.830;151.202;2024-02-21T09:00:20;5.70;;;2.08;;
25667;SDS011;18003;-33.830;151.202;2024-02-21T09:02:51;5.65;;;2.20;;
25667;SDS011;18003;-33.830;151.202;2024-02-21T09:05:22;6.08;;;1.90;;
25667;SDS011;18003;-33.830;151.202;2024-02-21T09:07:52;7.70;;;2.30;;
25667;SDS011;18003;-33.830;151.202;2024-02-21T09:10:22;6.20;;;2.12;;
25667;SDS011;18003;-33.830;151.202;2024-02-21T09:12:54;4.92;;;1.92;;
25667;SDS011;18003;-33.830;151.202;2024-02-21T09:15:29;7.30;;;2.00;;
25667;SDS011;18003;-33.830;151.202;2024-02-21T09:17:58;3.98;;;1.80;;
25667;SDS011;18003;-33.830;151.202;2024-02-21T09:20:29;5.40;;;2.10;;
25667;SDS011;18003;-33.830;151.202;2024-02-21T09:22:59;6.28;;;2.30;;
25667;SDS011;18003;-33.830;151.202;2024-02-21T09:25:42;6.08;;;1.80;;
25667;SDS011;18003;-33.830;151.202;2024-02-21T09:28:17;3.90;;;2.00;;
25667;SDS011;18003;-33.830;151.202;2024-02-21T09:30:43;5.25;;;2.15;;
25667;SDS011;18003;-33.830;151.202;2024-02-21T09:33:13;3.75;;;1.82;;
25667;SDS011;18003;-33.830;151.202;2024-02-21T09:35:43;4.62;;;2.30;;
25667;SDS011;18003;-33.830;151.202;2024-02-21T09:43:36;4.58;;;2.15;;
25667;SDS011;18003;-33.830;151.202;2024-02-21T09:46:13;5.55;;;2.15;;
25667;SDS011;18003;-33.830;151.202;2024-02-21T09:51:21;3.98;;;1.90;;
25667;SDS011;18003;-33.830;151.202;2024-02-21T09:53:51;8.83;;;2.13;;
25667;SDS011;18003;-33.830;151.202;2024-02-21T09:56:23;5.53;;;2.25;;
25667;SDS011;18003;-33.830;151.202;2024-02-21T09:58:53;5.40;;;2.10;;
25667;SDS011;18003;-33.830;151.202;2024-02-21T10:01:23;5.33;;;2.17;;
25667;SDS011;18003;-33.830;151.202;2024-02-21T10:03:52;6.83;;;2.20;;
25667;SDS011;18003;-33.830;151.202;2024-02-21T10:06:23;7.47;;;2.67;;
25667;SDS011;18003;-33.830;151.202;2024-02-21T10:08:53;5.90;;;2.00;;
25667;SDS011;18003;-33.830;151.202;2024-02-21T10:11:23;6.67;;;2.20;;
25667;SDS011;18003;-33.830;151.202;2024-02-21T10:14:06;6.42;;;2.00;;
25667;SDS011;18003;-33.830;151.202;2024-02-21T10:19:27;7.80;;;2.22;;
25667;SDS011;18003;-33.830;151.202;2024-02-21T10:24:34;6.28;;;2.17;;
25667;SDS011;18003;-33.830;151.202;2024-02-21T10:27:08;6.92;;;2.15;;
25667;SDS011;18003;-33.830;151.202;2024-02-21T10:29:38;6.95;;;2.50;;
25667;SDS011;18003;-33.830;151.202;2024-02-21T10:32:09;6.37;;;2.27;;
25667;SDS011;18003;-33.830;151.202;2024-02-21T10:34:40;5.17;;;2.10;;
25667;SDS011;18003;-33.830;151.202;2024-02-21T10:37:10;6.47;;;2.30;;
25667;SDS011;18003;-33.830;151.202;2024-02-21T10:39:40;5.60;;;2.40;;
25667;SDS011;18003;-33.830;151.202;2024-02-21T10:45:05;8.58;;;2.35;;
25667;SDS011;18003;-33.830;151.202;2024-02-21T10:47:36;6.45;;;2.12;;
25667;SDS011;18003;-33.830;151.202;2024-02-21T10:50:11;4.67;;;2.02;;
25667;SDS011;18003;-33.830;151.202;2024-02-21T10:52:56;4.58;;;2.45;;
25667;SDS011;18003;-33.830;151.202;2024-02-21T10:55:29;8.55;;;3.00;;
25667;SDS011;18003;-33.830;151.202;2024-02-21T10:58:01;5.78;;;2.30;;
25667;SDS011;18003;-33.830;151.202;2024-02-21T11:00:31;7.47;;;2.30;;
25667;SDS011;18003;-33.830;151.202;2024-02-21T11:03:02;5.75;;;2.15;;
25667;SDS011;18003;-33.830;151.202;2024-02-21T11:05:38;11.70;;;2.40;;
25667;SDS011;18003;-33.830;151.202;2024-02-21T11:08:05;7.50;;;2.50;;
25667;SDS011;18003;-33.830;151.202;2024-02-21T11:10:36;7.22;;;2.40;;
25667;SDS011;18003;-33.830;151.202;2024-02-21T11:13:10;7.60;;;2.90;;
25667;SDS011;18003;-33.830;151.202;2024-02-21T11:15:40;4.72;;;2.50;;
25667;SDS011;18003;-33.830;151.202;2024-02-21T11:18:10;7.12;;;3.00;;
25667;SDS011;18003;-33.830;151.202;2024-02-21T11:20:49;7.95;;;2.77;;
25667;SDS011;18003;-33.830;151.202;2024-02-21T11:23:13;7.72;;;2.80;;
25667;SDS011;18003;-33.830;151.202;2024-02-21T11:25:44;6.50;;;2.42;;
25667;SDS011;18003;-33.830;151.202;2024-02-21T11:28:15;5.55;;;2.40;;
25667;SDS011;18003;-33.830;151.202;2024-02-21T11:30:46;7.67;;;2.40;;
25667;SDS011;18003;-33.830;151.202;2024-02-21T11:33:17;7.05;;;2.62;;
25667;SDS011;18003;-33.830;151.202;2024-02-21T11:35:48;7.78;;;2.45;;
25667;SDS011;18003;-33.830;151.202;2024-02-21T11:38:19;8.30;;;2.30;;
25667;SDS011;18003;-33.830;151.202;2024-02-21T11:40:51;6.25;;;2.40;;
25667;SDS011;18003;-33.830;151.202;2024-02-21T11:43:21;6.28;;;2.27;;
25667;SDS011;18003;-33.830;151.202;2024-02-21T11:46:00;7.58;;;2.70;;
25667;SDS011;18003;-33.830;151.202;2024-02-21T11:48:30;6.53;;;2.33;;
25667;SDS011;18003;-33.830;151.202;2024-02-21T11:51:00;7.35;;;2.40;;
25667;SDS011;18003;-33.830;151.202;2024-02-21T11:53:31;8.05;;;2.30;;
25667;SDS011;18003;-33.830;151.202;2024-02-21T11:56:01;5.70;;;2.17;;
25667;SDS011;18003;-33.830;151.202;2024-02-21T11:58:32;5.60;;;2.50;;
25667;SDS011;18003;-33.830;151.202;2024-02-21T12:01:02;6.87;;;2.52;;
25667;SDS011;18003;-33.830;151.202;2024-02-21T12:06:02;6.62;;;2.20;;
25667;SDS011;18003;-33.830;151.202;2024-02-21T12:08:42;7.28;;;2.05;;
25667;SDS011;18003;-33.830;151.202;2024-02-21T12:11:20;8.13;;;2.52;;
25667;SDS011;18003;-33.830;151.202;2024-02-21T12:14:01;6.78;;;2.67;;
25667;SDS011;18003;-33.830;151.202;2024-02-21T12:16:32;8.35;;;2.30;;
25667;SDS011;18003;-33.830;151.202;2024-02-21T12:22:26;8.10;;;2.25;;
25667;SDS011;18003;-33.830;151.202;2024-02-21T12:25:15;8.00;;;2.40;;
25667;SDS011;18003;-33.830;151.202;2024-02-21T12:27:34;6.58;;;2.35;;
25667;SDS011;18003;-33.830;151.202;2024-02-21T12:30:04;5.20;;;2.30;;
25667;SDS011;18003;-33.830;151.202;2024-02-21T12:32:36;5.30;;;2.37;;
25667;SDS011;18003;-33.830;151.202;2024-02-21T12:35:06;6.67;;;2.22;;
25667;SDS011;18003;-33.830;151.202;2024-02-21T12:40:05;4.80;;;2.60;;
25667;SDS011;18003;-33.830;151.202;2024-02-21T12:42:37;6.08;;;2.17;;
25667;SDS011;18003;-33.830;151.202;2024-02-21T12:45:07;7.15;;;2.52;;
25667;SDS011;18003;-33.830;151.202;2024-02-21T12:47:37;8.35;;;2.72;;
25667;SDS011;18003;-33.830;151.202;2024-02-21T12:50:07;4.08;;;2.27;;
25667;SDS011;18003;-33.830;151.202;2024-02-21T12:52:37;6.45;;;2.10;;
25667;SDS011;18003;-33.830;151.202;2024-02-21T12:55:07;6.22;;;2.33;;
25667;SDS011;18003;-33.830;151.202;2024-02-21T12:57:38;5.67;;;2.47;;
25667;SDS011;18003;-33.830;151.202;2024-02-21T13:00:08;8.03;;;2.60;;
25667;SDS011;18003;-33.830;151.202;2024-02-21T13:02:38;4.67;;;2.40;;
25667;SDS011;18003;-33.830;151.202;2024-02-21T13:05:09;2.67;;;1.90;;
25667;SDS011;18003;-33.830;151.202;2024-02-21T13:07:39;9.48;;;2.30;;
25667;SDS011;18003;-33.830;151.202;2024-02-21T13:10:08;6.25;;;2.30;;
25667;SDS011;18003;-33.830;151.202;2024-02-21T13:12:38;4.95;;;2.15;;
25667;SDS011;18003;-33.830;151.202;2024-02-21T13:15:08;7.45;;;1.90;;
25667;SDS011;18003;-33.830;151.202;2024-02-21T13:17:38;7.17;;;2.00;;
25667;SDS011;18003;-33.830;151.202;2024-02-21T13:20:08;6.58;;;2.20;;
25667;SDS011;18003;-33.830;151.202;2024-02-21T13:22:39;5.85;;;2.00;;
25667;SDS011;18003;-33.830;151.202;2024-02-21T13:25:09;5.65;;;1.87;;
25667;SDS011;18003;-33.830;151.202;2024-02-21T13:27:39;7.20;;;2.25;;
25667;SDS011;18003;-33.830;151.202;2024-02-21T13:30:09;6.60;;;2.00;;
25667;SDS011;18003;-33.830;151.202;2024-02-21T13:32:41;4.47;;;1.90;;
25667;SDS011;18003;-33.830;151.202;2024-02-21T13:35:12;6.03;;;1.82;;
25667;SDS011;18003;-33.830;151.202;2024-02-21T13:37:43;5.30;;;1.80;;
25667;SDS011;18003;-33.830;151.202;2024-02-21T13:40:13;5.23;;;1.53;;
25667;SDS011;18003;-33.830;151.202;2024-02-21T13:42:42;8.50;;;1.82;;
25667;SDS011;18003;-33.830;151.202;2024-02-21T13:45:12;3.92;;;1.42;;
25667;SDS011;18003;-33.830;151.202;2024-02-21T13:47:42;4.33;;;1.62;;
25667;SDS011;18003;-33.830;151.202;2024-02-21T13:50:12;5.90;;;1.70;;
25667;SDS011;18003;-33.830;151.202;2024-02-21T13:52:42;7.83;;;1.77;;
25667;SDS011;18003;-33.830;151.202;2024-02-21T13:55:13;7.40;;;1.85;;
25667;SDS011;18003;-33.830;151.202;2024-02-21T13:57:42;5.65;;;1.60;;
25667;SDS011;18003;-33.830;151.202;2024-02-21T14:00:12;5.67;;;1.67;;
25667;SDS011;18003;-33.830;151.202;2024-02-21T14:02:44;5.90;;;1.50;;
25667;SDS011;18003;-33.830;151.202;2024-02-21T14:05:14;6.90;;;1.57;;
25667;SDS011;18003;-33.830;151.202;2024-02-21T14:07:43;8.80;;;1.92;;
25667;SDS011;18003;-33.830;151.202;2024-02-21T14:10:13;5.25;;;1.40;;
25667;SDS011;18003;-33.830;151.202;2024-02-21T14:12:43;7.42;;;1.75;;
25667;SDS011;18003;-33.830;151.202;2024-02-21T14:15:14;7.55;;;1.70;;
25667;SDS011;18003;-33.830;151.202;2024-02-21T14:17:44;5.97;;;1.85;;
25667;SDS011;18003;-33.830;151.202;2024-02-21T14:20:14;4.25;;;1.60;;
25667;SDS011;18003;-33.830;151.202;2024-02-21T14:22:43;6.80;;;1.50;;
25667;SDS011;18003;-33.830;151.202;2024-02-21T14:25:13;2.87;;;1.67;;
25667;SDS011;18003;-33.830;151.202;2024-02-21T14:27:43;5.50;;;1.60;;
25667;SDS011;18003;-33.830;151.202;2024-02-21T14:30:13;4.80;;;1.67;;
25667;SDS011;18003;-33.830;151.202;2024-02-21T14:32:43;4.42;;;1.70;;
25667;SDS011;18003;-33.830;151.202;2024-02-21T14:35:13;3.95;;;1.80;;
25667;SDS011;18003;-33.830;151.202;2024-02-21T14:37:42;3.98;;;1.40;;
25667;SDS011;18003;-33.830;151.202;2024-02-21T14:40:12;8.50;;;1.90;;
25667;SDS011;18003;-33.830;151.202;2024-02-21T14:42:42;7.75;;;1.85;;
25667;SDS011;18003;-33.830;151.202;2024-02-21T14:45:12;3.67;;;1.72;;
25667;SDS011;18003;-33.830;151.202;2024-02-21T14:47:42;4.08;;;1.45;;
25667;SDS011;18003;-33.830;151.202;2024-02-21T14:50:12;4.30;;;1.57;;
25667;SDS011;18003;-33.830;151.202;2024-02-21T14:52:42;6.85;;;2.10;;
25667;SDS011;18003;-33.830;151.202;2024-02-21T14:55:13;7.75;;;2.27;;
25667;SDS011;18003;-33.830;151.202;2024-02-21T14:57:43;5.12;;;2.08;;
25667;SDS011;18003;-33.830;151.202;2024-02-21T15:00:13;9.15;;;2.37;;
25667;SDS011;18003;-33.830;151.202;2024-02-21T15:02:43;5.53;;;1.77;;
25667;SDS011;18003;-33.830;151.202;2024-02-21T15:05:13;5.08;;;1.40;;